sensor_id;sensor_type;location;lat;lon;timestamp;P1;durP1;ratioP1;P2;durP2;ratioP2
25341;SDS011;13298;48.792;9.154;2023-03-31T00:02:10;4.93;;;1.20;;
25341;SDS011;13298;48.792;9.154;2023-03-31T00:04:39;3.97;;;1.65;;
25341;SDS011;13298;48.792;9.154;2023-03-31T00:07:11;9.63;;;1.38;;
25341;SDS011;13298;48.792;9.154;2023-03-31T00:09:38;4.28;;;1.23;;
25341;SDS011;13298;48.792;9.154;2023-03-31T00:12:06;6.30;;;1.60;;
25341;SDS011;13298;48.792;9.154;2023-03-31T00:14:31;2.72;;;1.20;;
25341;SDS011;13298;48.792;9.154;2023-03-31T00:16:57;5.68;;;1.55;;
25341;SDS011;13298;48.792;9.154;2023-03-31T00:19:23;4.43;;;1.33;;
25341;SDS011;13298;48.792;9.154;2023-03-31T00:21:48;2.50;;;1.35;;
25341;SDS011;13298;48.792;9.154;2023-03-31T00:24:15;6.93;;;1.55;;
25341;SDS011;13298;48.792;9.154;2023-03-31T00:26:42;4.53;;;1.65;;
25341;SDS011;13298;48.792;9.154;2023-03-31T00:29:08;5.28;;;1.40;;
25341;SDS011;13298;48.792;9.154;2023-03-31T00:31:37;6.05;;;1.80;;
25341;SDS011;13298;48.792;9.154;2023-03-31T00:34:03;4.60;;;1.63;;
25341;SDS011;13298;48.792;9.154;2023-03-31T00:36:30;3.95;;;1.63;;
25341;SDS011;13298;48.792;9.154;2023-03-31T00:38:57;6.40;;;1.85;;
25341;SDS011;13298;48.792;9.154;2023-03-31T00:41:33;4.30;;;1.60;;
25341;SDS011;13298;48.792;9.154;2023-03-31T00:46:48;6.25;;;1.73;;
25341;SDS011;13298;48.792;9.154;2023-03-31T00:49:39;7.00;;;1.52;;
25341;SDS011;13298;48.792;9.154;2023-03-31T00:52:11;5.47;;;1.20;;
25341;SDS011;13298;48.792;9.154;2023-03-31T00:54:55;4.60;;;2.05;;
25341;SDS011;13298;48.792;9.154;2023-03-31T00:57:32;3.03;;;1.50;;
25341;SDS011;13298;48.792;9.154;2023-03-31T01:00:04;4.75;;;1.75;;
25341;SDS011;13298;48.792;9.154;2023-03-31T01:02:40;5.15;;;1.67;;
25341;SDS011;13298;48.792;9.154;2023-03-31T01:05:20;6.03;;;1.60;;
25341;SDS011;13298;48.792;9.154;2023-03-31T01:07:51;4.50;;;1.52;;
25341;SDS011;13298;48.792;9.154;2023-03-31T01:10:18;5.63;;;1.40;;
25341;SDS011;13298;48.792;9.154;2023-03-31T01:12:46;5.32;;;1.63;;
25341;SDS011;13298;48.792;9.154;2023-03-31T01:15:16;8.25;;;1.90;;
25341;SDS011;13298;48.792;9.154;2023-03-31T01:17:42;4.90;;;1.50;;
25341;SDS011;13298;48.792;9.154;2023-03-31T01:23:13;10.30;;;1.83;;
25341;SDS011;13298;48.792;9.154;2023-03-31T01:28:51;5.47;;;1.73;;
25341;SDS011;13298;48.792;9.154;2023-03-31T01:42:54;7.43;;;1.77;;
25341;SDS011;13298;48.792;9.154;2023-03-31T01:48:18;6.63;;;1.55;;
25341;SDS011;13298;48.792;9.154;2023-03-31T01:51:11;6.57;;;2.17;;
25341;SDS011;13298;48.792;9.154;2023-03-31T01:56:40;7.32;;;1.45;;
25341;SDS011;13298;48.792;9.154;2023-03-31T01:59:41;7.47;;;1.80;;
25341;SDS011;13298;48.792;9.154;2023-03-31T02:02:19;7.55;;;1.73;;
25341;SDS011;13298;48.792;9.154;2023-03-31T02:05:08;5.00;;;1.42;;
25341;SDS011;13298;48.792;9.154;2023-03-31T02:07:39;7.20;;;1.73;;
25341;SDS011;13298;48.792;9.154;2023-03-31T02:10:12;7.82;;;1.50;;
25341;SDS011;13298;48.792;9.154;2023-03-31T02:12:40;4.82;;;1.40;;
25341;SDS011;13298;48.792;9.154;2023-03-31T02:15:09;7.45;;;1.90;;
25341;SDS011;13298;48.792;9.154;2023-03-31T02:17:42;5.80;;;1.58;;
25341;SDS011;13298;48.792;9.154;2023-03-31T02:20:12;4.13;;;1.55;;
25341;SDS011;13298;48.792;9.154;2023-03-31T02:22:42;4.43;;;1.40;;
25341;SDS011;13298;48.792;9.154;2023-03-31T02:25:14;7.50;;;1.70;;
25341;SDS011;13298;48.792;9.154;2023-03-31T02:28:07;4.10;;;1.67;;
25341;SDS011;13298;48.792;9.154;2023-03-31T02:30:56;7.03;;;1.60;;
25341;SDS011;13298;48.792;9.154;2023-03-31T02:33:44;5.93;;;1.58;;
25341;SDS011;13298;48.792;9.154;2023-03-31T02:36:09;4.25;;;1.55;;
25341;SDS011;13298;48.792;9.154;2023-03-31T02:38:37;4.18;;;1.65;;
25341;SDS011;13298;48.792;9.154;2023-03-31T02:41:08;8.02;;;1.60;;
25341;SDS011;13298;48.792;9.154;2023-03-31T02:43:34;8.35;;;1.95;;
25341;SDS011;13298;48.792;9.154;2023-03-31T02:46:00;3.88;;;1.38;;
25341;SDS011;13298;48.792;9.154;2023-03-31T02:48:27;5.97;;;1.73;;
25341;SDS011;13298;48.792;9.154;2023-03-31T02:51:07;5.87;;;1.60;;
25341;SDS011;13298;48.792;9.154;2023-03-31T03:00:13;6.75;;;1.88;;
25341;SDS011;13298;48.792;9.154;2023-03-31T03:06:00;4.53;;;1.75;;
25341;SDS011;13298;48.792;9.154;2023-03-31T03:09:00;3.42;;;1.38;;
25341;SDS011;13298;48.792;9.154;2023-03-31T03:11:58;3.90;;;1.65;;
25341;SDS011;13298;48.792;9.154;2023-03-31T03:14:50;4.68;;;1.98;;
25341;SDS011;13298;48.792;9.154;2023-03-31T03:17:27;3.08;;;1.30;;
25341;SDS011;13298;48.792;9.154;2023-03-31T03:20:00;3.97;;;1.40;;
25341;SDS011;13298;48.792;9.154;2023-03-31T03:22:31;3.15;;;1.27;;
25341;SDS011;13298;48.792;9.154;2023-03-31T03:24:58;4.72;;;1.80;;
25341;SDS011;13298;48.792;9.154;2023-03-31T03:27:23;8.45;;;1.55;;
25341;SDS011;13298;48.792;9.154;2023-03-31T03:29:49;4.85;;;1.48;;
25341;SDS011;13298;48.792;9.154;2023-03-31T03:32:15;3.50;;;1.63;;
25341;SDS011;13298;48.792;9.154;2023-03-31T03:34:41;3.08;;;1.38;;
25341;SDS011;13298;48.792;9.154;2023-03-31T03:37:06;4.43;;;1.63;;
25341;SDS011;13298;48.792;9.154;2023-03-31T03:39:32;4.13;;;1.75;;
25341;SDS011;13298;48.792;9.154;2023-03-31T03:41:58;6.53;;;1.80;;
25341;SDS011;13298;48.792;9.154;2023-03-31T03:44:24;6.40;;;2.00;;
25341;SDS011;13298;48.792;9.154;2023-03-31T03:46:49;6.20;;;2.00;;
25341;SDS011;13298;48.792;9.154;2023-03-31T03:49:15;5.18;;;1.77;;
25341;SDS011;13298;48.792;9.154;2023-03-31T03:51:41;3.30;;;1.67;;
25341;SDS011;13298;48.792;9.154;2023-03-31T03:54:07;5.55;;;1.90;;
25341;SDS011;13298;48.792;9.154;2023-03-31T03:56:32;3.70;;;1.67;;
25341;SDS011;13298;48.792;9.154;2023-03-31T03:58:58;5.15;;;1.83;;
25341;SDS011;13298;48.792;9.154;2023-03-31T04:01:24;4.97;;;2.03;;
25341;SDS011;13298;48.792;9.154;2023-03-31T04:03:49;3.50;;;1.50;;
25341;SDS011;13298;48.792;9.154;2023-03-31T04:06:15;5.60;;;2.15;;
25341;SDS011;13298;48.792;9.154;2023-03-31T04:08:41;7.70;;;2.08;;
25341;SDS011;13298;48.792;9.154;2023-03-31T04:11:11;5.15;;;2.17;;
25341;SDS011;13298;48.792;9.154;2023-03-31T04:13:41;5.88;;;2.20;;
25341;SDS011;13298;48.792;9.154;2023-03-31T04:16:08;6.63;;;2.17;;
25341;SDS011;13298;48.792;9.154;2023-03-31T04:18:34;5.95;;;2.25;;
25341;SDS011;13298;48.792;9.154;2023-03-31T04:21:01;4.57;;;2.15;;
25341;SDS011;13298;48.792;9.154;2023-03-31T04:23:34;5.57;;;2.00;;
25341;SDS011;13298;48.792;9.154;2023-03-31T04:26:10;10.85;;;2.78;;
25341;SDS011;13298;48.792;9.154;2023-03-31T04:28:36;7.25;;;2.60;;
25341;SDS011;13298;48.792;9.154;2023-03-31T04:31:07;11.15;;;2.70;;
25341;SDS011;13298;48.792;9.154;2023-03-31T04:33:34;6.53;;;2.83;;
25341;SDS011;13298;48.792;9.154;2023-03-31T04:36:06;8.57;;;2.92;;
25341;SDS011;13298;48.792;9.154;2023-03-31T04:38:41;5.70;;;2.53;;
25341;SDS011;13298;48.792;9.154;2023-03-31T04:41:21;5.93;;;2.58;;
25341;SDS011;13298;48.792;9.154;2023-03-31T04:43:48;6.28;;;2.88;;
25341;SDS011;13298;48.792;9.154;2023-03-31T04:46:14;9.90;;;3.17;;
25341;SDS011;13298;48.792;9.154;2023-03-31T04:48:40;6.50;;;2.50;;
25341;SDS011;13298;48.792;9.154;2023-03-31T04:51:06;6.18;;;2.47;;
25341;SDS011;13298;48.792;9.154;2023-03-31T04:53:32;3.63;;;2.17;;
25341;SDS011;13298;48.792;9.154;2023-03-31T04:55:58;7.85;;;2.38;;
25341;SDS011;13298;48.792;9.154;2023-03-31T04:58:24;6.00;;;2.83;;
25341;SDS011;13298;48.792;9.154;2023-03-31T05:00:50;5.88;;;2.30;;
25341;SDS011;13298;48.792;9.154;2023-03-31T05:03:16;5.93;;;2.80;;
25341;SDS011;13298;48.792;9.154;2023-03-31T05:05:42;6.78;;;2.47;;
25341;SDS011;13298;48.792;9.154;2023-03-31T05:08:08;6.55;;;2.65;;
25341;SDS011;13298;48.792;9.154;2023-03-31T05:10:33;7.43;;;2.80;;
25341;SDS011;13298;48.792;9.154;2023-03-31T05:12:59;7.50;;;2.92;;
25341;SDS011;13298;48.792;9.154;2023-03-31T05:15:25;4.22;;;2.38;;
25341;SDS011;13298;48.792;9.154;2023-03-31T05:17:51;6.88;;;2.72;;
25341;SDS011;13298;48.792;9.154;2023-03-31T05:20:17;8.50;;;2.75;;
25341;SDS011;13298;48.792;9.154;2023-03-31T05:22:44;8.60;;;3.20;;
25341;SDS011;13298;48.792;9.154;2023-03-31T05:25:10;12.35;;;3.17;;
25341;SDS011;13298;48.792;9.154;2023-03-31T05:27:42;10.57;;;2.80;;
25341;SDS011;13298;48.792;9.154;2023-03-31T05:30:11;6.43;;;2.60;;
25341;SDS011;13298;48.792;9.154;2023-03-31T05:32:41;9.10;;;3.38;;
25341;SDS011;13298;48.792;9.154;2023-03-31T05:35:07;9.85;;;3.08;;
25341;SDS011;13298;48.792;9.154;2023-03-31T05:37:34;10.65;;;3.00;;
25341;SDS011;13298;48.792;9.154;2023-03-31T05:40:00;7.13;;;3.10;;
25341;SDS011;13298;48.792;9.154;2023-03-31T05:42:28;6.22;;;3.03;;
25341;SDS011;13298;48.792;9.154;2023-03-31T05:44:54;9.45;;;3.55;;
25341;SDS011;13298;48.792;9.154;2023-03-31T05:47:21;8.55;;;3.25;;
25341;SDS011;13298;48.792;9.154;2023-03-31T05:49:47;10.82;;;3.65;;
25341;SDS011;13298;48.792;9.154;2023-03-31T05:52:12;8.32;;;3.55;;
25341;SDS011;13298;48.792;9.154;2023-03-31T05:54:38;13.65;;;3.33;;
25341;SDS011;13298;48.792;9.154;2023-03-31T05:57:05;9.05;;;3.60;;
25341;SDS011;13298;48.792;9.154;2023-03-31T05:59:31;9.00;;;3.67;;
25341;SDS011;13298;48.792;9.154;2023-03-31T06:01:59;12.70;;;3.35;;
25341;SDS011;13298;48.792;9.154;2023-03-31T06:04:25;10.07;;;3.40;;
25341;SDS011;13298;48.792;9.154;2023-03-31T06:06:51;9.15;;;3.25;;
25341;SDS011;13298;48.792;9.154;2023-03-31T06:09:18;9.88;;;3.63;;
25341;SDS011;13298;48.792;9.154;2023-03-31T06:11:44;10.38;;;4.20;;
25341;SDS011;13298;48.792;9.154;2023-03-31T06:14:10;8.88;;;3.47;;
25341;SDS011;13298;48.792;9.154;2023-03-31T06:16:36;9.38;;;3.13;;
25341;SDS011;13298;48.792;9.154;2023-03-31T06:19:02;9.40;;;3.50;;
25341;SDS011;13298;48.792;9.154;2023-03-31T06:21:27;5.80;;;3.35;;
25341;SDS011;13298;48.792;9.154;2023-03-31T06:23:53;11.75;;;3.25;;
25341;SDS011;13298;48.792;9.154;2023-03-31T06:26:19;8.88;;;3.40;;
25341;SDS011;13298;48.792;9.154;2023-03-31T06:28:46;6.30;;;3.30;;
25341;SDS011;13298;48.792;9.154;2023-03-31T06:31:13;7.15;;;3.00;;
25341;SDS011;13298;48.792;9.154;2023-03-31T06:33:44;8.30;;;3.50;;
25341;SDS011;13298;48.792;9.154;2023-03-31T06:36:11;8.75;;;3.63;;
25341;SDS011;13298;48.792;9.154;2023-03-31T06:38:39;5.22;;;3.15;;
25341;SDS011;13298;48.792;9.154;2023-03-31T06:41:05;5.85;;;3.10;;
25341;SDS011;13298;48.792;9.154;2023-03-31T06:43:33;7.00;;;3.75;;
25341;SDS011;13298;48.792;9.154;2023-03-31T06:45:59;7.50;;;3.80;;
25341;SDS011;13298;48.792;9.154;2023-03-31T06:48:25;9.95;;;3.90;;
25341;SDS011;13298;48.792;9.154;2023-03-31T06:50:52;12.05;;;3.85;;
25341;SDS011;13298;48.792;9.154;2023-03-31T06:53:18;9.43;;;4.00;;
25341;SDS011;13298;48.792;9.154;2023-03-31T06:55:46;7.50;;;3.50;;
25341;SDS011;13298;48.792;9.154;2023-03-31T06:58:12;11.73;;;4.30;;
25341;SDS011;13298;48.792;9.154;2023-03-31T07:00:38;11.10;;;4.30;;
25341;SDS011;13298;48.792;9.154;2023-03-31T07:03:04;13.68;;;4.93;;
25341;SDS011;13298;48.792;9.154;2023-03-31T07:05:30;8.32;;;4.22;;
25341;SDS011;13298;48.792;9.154;2023-03-31T07:07:57;7.45;;;4.05;;
25341;SDS011;13298;48.792;9.154;2023-03-31T07:10:25;9.70;;;4.47;;
25341;SDS011;13298;48.792;9.154;2023-03-31T07:12:52;11.18;;;4.60;;
25341;SDS011;13298;48.792;9.154;2023-03-31T07:15:18;7.63;;;4.13;;
25341;SDS011;13298;48.792;9.154;2023-03-31T07:17:44;7.97;;;3.95;;
25341;SDS011;13298;48.792;9.154;2023-03-31T07:20:12;7.05;;;3.47;;
25341;SDS011;13298;48.792;9.154;2023-03-31T07:22:39;11.07;;;3.63;;
25341;SDS011;13298;48.792;9.154;2023-03-31T07:25:10;7.72;;;3.03;;
25341;SDS011;13298;48.792;9.154;2023-03-31T07:27:40;4.53;;;3.00;;
25341;SDS011;13298;48.792;9.154;2023-03-31T07:30:07;9.43;;;2.85;;
25341;SDS011;13298;48.792;9.154;2023-03-31T07:32:39;7.78;;;3.20;;
25341;SDS011;13298;48.792;9.154;2023-03-31T07:35:09;8.52;;;2.90;;
25341;SDS011;13298;48.792;9.154;2023-03-31T07:37:36;7.05;;;2.67;;
25341;SDS011;13298;48.792;9.154;2023-03-31T07:40:08;6.97;;;2.20;;
25341;SDS011;13298;48.792;9.154;2023-03-31T07:42:37;4.85;;;2.10;;
25341;SDS011;13298;48.792;9.154;2023-03-31T07:45:03;5.30;;;2.08;;
25341;SDS011;13298;48.792;9.154;2023-03-31T07:47:32;3.90;;;2.33;;
25341;SDS011;13298;48.792;9.154;2023-03-31T07:49:57;4.55;;;1.75;;
25341;SDS011;13298;48.792;9.154;2023-03-31T07:52:23;3.92;;;1.73;;
25341;SDS011;13298;48.792;9.154;2023-03-31T07:54:49;2.63;;;1.50;;
25341;SDS011;13298;48.792;9.154;2023-03-31T07:57:15;1.73;;;1.23;;
25341;SDS011;13298;48.792;9.154;2023-03-31T07:59:43;5.72;;;1.63;;
25341;SDS011;13298;48.792;9.154;2023-03-31T08:02:11;3.38;;;1.58;;
25341;SDS011;13298;48.792;9.154;2023-03-31T08:04:38;4.68;;;1.10;;
25341;SDS011;13298;48.792;9.154;2023-03-31T08:07:08;2.42;;;1.00;;
25341;SDS011;13298;48.792;9.154;2023-03-31T08:09:35;3.03;;;1.13;;
25341;SDS011;13298;48.792;9.154;2023-03-31T08:12:02;5.45;;;1.25;;
25341;SDS011;13298;48.792;9.154;2023-03-31T08:14:28;3.00;;;1.17;;
25341;SDS011;13298;48.792;9.154;2023-03-31T08:16:54;3.85;;;1.33;;
25341;SDS011;13298;48.792;9.154;2023-03-31T08:19:21;2.28;;;0.90;;
25341;SDS011;13298;48.792;9.154;2023-03-31T08:21:48;3.42;;;1.00;;
25341;SDS011;13298;48.792;9.154;2023-03-31T08:24:15;2.70;;;1.00;;
25341;SDS011;13298;48.792;9.154;2023-03-31T08:26:41;2.25;;;0.90;;
25341;SDS011;13298;48.792;9.154;2023-03-31T08:29:06;2.17;;;0.98;;
25341;SDS011;13298;48.792;9.154;2023-03-31T08:31:32;2.05;;;0.93;;
25341;SDS011;13298;48.792;9.154;2023-03-31T08:33:58;1.85;;;0.93;;
25341;SDS011;13298;48.792;9.154;2023-03-31T08:36:24;2.50;;;0.90;;
25341;SDS011;13298;48.792;9.154;2023-03-31T08:38:51;3.80;;;1.20;;
25341;SDS011;13298;48.792;9.154;2023-03-31T08:44:25;2.22;;;1.00;;
25341;SDS011;13298;48.792;9.154;2023-03-31T08:47:00;2.63;;;1.10;;
25341;SDS011;13298;48.792;9.154;2023-03-31T08:49:27;7.13;;;1.50;;
25341;SDS011;13298;48.792;9.154;2023-03-31T08:52:06;5.25;;;1.20;;
25341;SDS011;13298;48.792;9.154;2023-03-31T08:54:43;4.20;;;1.20;;
25341;SDS011;13298;48.792;9.154;2023-03-31T08:57:17;2.53;;;1.00;;
25341;SDS011;13298;48.792;9.154;2023-03-31T08:59:50;4.28;;;1.35;;
25341;SDS011;13298;48.792;9.154;2023-03-31T09:05:17;5.30;;;1.52;;
25341;SDS011;13298;48.792;9.154;2023-03-31T09:08:11;2.50;;;1.10;;
25341;SDS011;13298;48.792;9.154;2023-03-31T09:10:58;2.97;;;1.20;;
25341;SDS011;13298;48.792;9.154;2023-03-31T09:14:13;3.05;;;1.00;;
25341;SDS011;13298;48.792;9.154;2023-03-31T09:19:41;7.15;;;1.20;;
25341;SDS011;13298;48.792;9.154;2023-03-31T09:22:16;4.80;;;1.23;;
25341;SDS011;13298;48.792;9.154;2023-03-31T09:27:36;4.60;;;1.40;;
25341;SDS011;13298;48.792;9.154;2023-03-31T09:32:51;4.28;;;1.00;;
25341;SDS011;13298;48.792;9.154;2023-03-31T09:35:27;3.40;;;0.95;;
25341;SDS011;13298;48.792;9.154;2023-03-31T09:37:57;3.72;;;1.20;;
25341;SDS011;13298;48.792;9.154;2023-03-31T09:40:24;3.03;;;0.93;;
25341;SDS011;13298;48.792;9.154;2023-03-31T09:42:57;5.82;;;1.15;;
25341;SDS011;13298;48.792;9.154;2023-03-31T09:45:48;5.68;;;1.73;;
25341;SDS011;13298;48.792;9.154;2023-03-31T09:48:15;5.07;;;1.17;;
25341;SDS011;13298;48.792;9.154;2023-03-31T09:51:06;3.10;;;1.00;;
25341;SDS011;13298;48.792;9.154;2023-03-31T09:53:51;3.30;;;1.17;;
25341;SDS011;13298;48.792;9.154;2023-03-31T09:56:31;9.07;;;1.30;;
25341;SDS011;13298;48.792;9.154;2023-03-31T09:59:16;6.95;;;1.42;;
25341;SDS011;13298;48.792;9.154;2023-03-31T10:04:58;3.55;;;1.30;;
25341;SDS011;13298;48.792;9.154;2023-03-31T10:07:24;3.92;;;1.33;;
25341;SDS011;13298;48.792;9.154;2023-03-31T10:09:53;8.60;;;1.33;;
25341;SDS011;13298;48.792;9.154;2023-03-31T10:12:21;6.45;;;1.30;;
25341;SDS011;13298;48.792;9.154;2023-03-31T10:14:51;4.30;;;1.17;;
25341;SDS011;13298;48.792;9.154;2023-03-31T10:17:20;7.63;;;1.33;;
25341;SDS011;13298;48.792;9.154;2023-03-31T10:19:49;4.15;;;1.00;;
25341;SDS011;13298;48.792;9.154;2023-03-31T10:24:48;5.75;;;1.48;;
25341;SDS011;13298;48.792;9.154;2023-03-31T10:27:25;5.90;;;1.45;;
25341;SDS011;13298;48.792;9.154;2023-03-31T10:29:54;7.32;;;1.42;;
25341;SDS011;13298;48.792;9.154;2023-03-31T10:32:23;7.90;;;1.40;;
25341;SDS011;13298;48.792;9.154;2023-03-31T10:34:53;6.10;;;1.70;;
25341;SDS011;13298;48.792;9.154;2023-03-31T10:37:27;8.38;;;1.50;;
25341;SDS011;13298;48.792;9.154;2023-03-31T10:39:59;3.88;;;1.13;;
25341;SDS011;13298;48.792;9.154;2023-03-31T10:42:40;5.07;;;1.40;;
25341;SDS011;13298;48.792;9.154;2023-03-31T10:45:29;8.98;;;1.75;;
25341;SDS011;13298;48.792;9.154;2023-03-31T10:48:02;10.48;;;2.00;;
25341;SDS011;13298;48.792;9.154;2023-03-31T10:50:29;6.32;;;1.75;;
25341;SDS011;13298;48.792;9.154;2023-03-31T10:53:01;7.38;;;1.40;;
25341;SDS011;13298;48.792;9.154;2023-03-31T11:01:12;3.67;;;1.63;;
25341;SDS011;13298;48.792;9.154;2023-03-31T11:04:12;8.85;;;1.60;;
25341;SDS011;13298;48.792;9.154;2023-03-31T11:07:10;5.22;;;1.35;;
25341;SDS011;13298;48.792;9.154;2023-03-31T11:15:58;5.32;;;1.48;;
25341;SDS011;13298;48.792;9.154;2023-03-31T11:21:36;4.32;;;1.15;;
25341;SDS011;13298;48.792;9.154;2023-03-31T11:24:22;8.55;;;0.90;;
25341;SDS011;13298;48.792;9.154;2023-03-31T11:38:26;0.75;;;0.35;;
25341;SDS011;13298;48.792;9.154;2023-03-31T11:44:05;2.20;;;0.60;;
25341;SDS011;13298;48.792;9.154;2023-03-31T11:46:38;2.03;;;0.43;;
25341;SDS011;13298;48.792;9.154;2023-03-31T11:49:20;4.22;;;0.68;;
25341;SDS011;13298;48.792;9.154;2023-03-31T11:52:02;1.20;;;0.45;;
25341;SDS011;13298;48.792;9.154;2023-03-31T11:54:41;2.55;;;0.40;;
25341;SDS011;13298;48.792;9.154;2023-03-31T11:57:19;1.58;;;0.43;;
25341;SDS011;13298;48.792;9.154;2023-03-31T11:59:54;0.50;;;0.30;;
25341;SDS011;13298;48.792;9.154;2023-03-31T12:02:43;1.02;;;0.30;;
25341;SDS011;13298;48.792;9.154;2023-03-31T12:05:13;1.55;;;0.30;;
25341;SDS011;13298;48.792;9.154;2023-03-31T12:07:47;1.98;;;0.60;;
25341;SDS011;13298;48.792;9.154;2023-03-31T12:10:31;2.85;;;0.50;;
25341;SDS011;13298;48.792;9.154;2023-03-31T12:13:08;1.15;;;0.43;;
25341;SDS011;13298;48.792;9.154;2023-03-31T12:16:04;2.20;;;0.55;;
25341;SDS011;13298;48.792;9.154;2023-03-31T12:18:58;0.90;;;0.28;;
25341;SDS011;13298;48.792;9.154;2023-03-31T12:21:39;1.23;;;0.55;;
25341;SDS011;13298;48.792;9.154;2023-03-31T12:24:10;2.63;;;0.70;;
25341;SDS011;13298;48.792;9.154;2023-03-31T12:29:30;2.80;;;0.50;;
25341;SDS011;13298;48.792;9.154;2023-03-31T12:32:03;3.20;;;0.77;;
25341;SDS011;13298;48.792;9.154;2023-03-31T12:34:37;1.75;;;0.60;;
25341;SDS011;13298;48.792;9.154;2023-03-31T12:37:27;2.05;;;0.70;;
25341;SDS011;13298;48.792;9.154;2023-03-31T12:40:51;2.50;;;0.60;;
25341;SDS011;13298;48.792;9.154;2023-03-31T12:46:28;2.10;;;0.80;;
25341;SDS011;13298;48.792;9.154;2023-03-31T12:57:46;3.30;;;0.50;;
25341;SDS011;13298;48.792;9.154;2023-03-31T13:03:34;4.38;;;0.73;;
25341;SDS011;13298;48.792;9.154;2023-03-31T13:05:58;3.00;;;0.80;;
25341;SDS011;13298;48.792;9.154;2023-03-31T13:11:18;3.25;;;0.80;;
25341;SDS011;13298;48.792;9.154;2023-03-31T13:16:44;4.43;;;0.90;;
25341;SDS011;13298;48.792;9.154;2023-03-31T13:19:23;9.50;;;0.93;;
25341;SDS011;13298;48.792;9.154;2023-03-31T13:21:58;3.83;;;1.00;;
25341;SDS011;13298;48.792;9.154;2023-03-31T13:24:27;5.65;;;1.02;;
25341;SDS011;13298;48.792;9.154;2023-03-31T13:26:55;1.98;;;0.73;;
25341;SDS011;13298;48.792;9.154;2023-03-31T13:29:41;2.38;;;0.57;;
25341;SDS011;13298;48.792;9.154;2023-03-31T13:32:26;2.60;;;0.60;;
25341;SDS011;13298;48.792;9.154;2023-03-31T13:38:05;2.42;;;0.50;;
25341;SDS011;13298;48.792;9.154;2023-03-31T13:41:08;2.72;;;0.43;;
25341;SDS011;13298;48.792;9.154;2023-03-31T13:46:56;2.95;;;0.47;;
25341;SDS011;13298;48.792;9.154;2023-03-31T13:52:11;0.82;;;0.40;;
25341;SDS011;13298;48.792;9.154;2023-03-31T14:09:26;1.90;;;0.40;;
25341;SDS011;13298;48.792;9.154;2023-03-31T14:14:23;0.73;;;0.35;;
25341;SDS011;13298;48.792;9.154;2023-03-31T14:16:58;1.30;;;0.30;;
25341;SDS011;13298;48.792;9.154;2023-03-31T14:30:14;1.13;;;0.30;;
25341;SDS011;13298;48.792;9.154;2023-03-31T14:33:32;0.90;;;0.30;;
25341;SDS011;13298;48.792;9.154;2023-03-31T14:36:26;1.83;;;0.57;;
25341;SDS011;13298;48.792;9.154;2023-03-31T14:39:46;2.15;;;0.60;;
25341;SDS011;13298;48.792;9.154;2023-03-31T14:42:22;1.55;;;0.40;;
25341;SDS011;13298;48.792;9.154;2023-03-31T14:44:56;0.80;;;0.40;;
25341;SDS011;13298;48.792;9.154;2023-03-31T14:47:27;1.55;;;0.52;;
25341;SDS011;13298;48.792;9.154;2023-03-31T14:52:57;1.58;;;0.50;;
25341;SDS011;13298;48.792;9.154;2023-03-31T14:55:27;1.90;;;0.40;;
25341;SDS011;13298;48.792;9.154;2023-03-31T14:57:56;1.45;;;0.35;;
25341;SDS011;13298;48.792;9.154;2023-03-31T15:00:26;2.17;;;0.50;;
25341;SDS011;13298;48.792;9.154;2023-03-31T15:02:55;0.77;;;0.43;;
25341;SDS011;13298;48.792;9.154;2023-03-31T15:05:30;2.08;;;0.40;;
25341;SDS011;13298;48.792;9.154;2023-03-31T15:08:03;0.60;;;0.30;;
25341;SDS011;13298;48.792;9.154;2023-03-31T15:10:43;2.50;;;0.60;;
25341;SDS011;13298;48.792;9.154;2023-03-31T15:15:43;2.63;;;0.70;;
25341;SDS011;13298;48.792;9.154;2023-03-31T15:18:13;0.98;;;0.52;;
25341;SDS011;13298;48.792;9.154;2023-03-31T15:20:41;2.60;;;0.60;;
25341;SDS011;13298;48.792;9.154;2023-03-31T15:23:18;3.58;;;0.60;;
25341;SDS011;13298;48.792;9.154;2023-03-31T15:25:53;3.38;;;0.60;;
25341;SDS011;13298;48.792;9.154;2023-03-31T15:28:22;4.45;;;0.57;;
25341;SDS011;13298;48.792;9.154;2023-03-31T15:30:52;1.58;;;0.60;;
25341;SDS011;13298;48.792;9.154;2023-03-31T15:33:20;2.08;;;0.60;;
25341;SDS011;13298;48.792;9.154;2023-03-31T15:35:52;4.80;;;0.75;;
25341;SDS011;13298;48.792;9.154;2023-03-31T15:38:18;2.75;;;0.60;;
25341;SDS011;13298;48.792;9.154;2023-03-31T15:40:44;3.20;;;0.80;;
25341;SDS011;13298;48.792;9.154;2023-03-31T15:43:25;2.83;;;0.55;;
25341;SDS011;13298;48.792;9.154;2023-03-31T15:45:56;4.28;;;0.70;;
25341;SDS011;13298;48.792;9.154;2023-03-31T15:48:29;1.67;;;0.43;;
25341;SDS011;13298;48.792;9.154;2023-03-31T15:53:46;3.28;;;0.73;;
25341;SDS011;13298;48.792;9.154;2023-03-31T15:58:56;2.10;;;0.80;;
25341;SDS011;13298;48.792;9.154;2023-03-31T16:01:25;3.38;;;0.60;;
25341;SDS011;13298;48.792;9.154;2023-03-31T16:03:56;2.53;;;0.43;;
25341;SDS011;13298;48.792;9.154;2023-03-31T16:06:31;2.00;;;0.70;;
25341;SDS011;13298;48.792;9.154;2023-03-31T16:09:08;2.55;;;1.00;;
25341;SDS011;13298;48.792;9.154;2023-03-31T16:11:46;3.72;;;0.60;;
25341;SDS011;13298;48.792;9.154;2023-03-31T16:16:58;1.33;;;0.65;;
25341;SDS011;13298;48.792;9.154;2023-03-31T16:19:30;5.88;;;1.05;;
25341;SDS011;13298;48.792;9.154;2023-03-31T16:22:06;1.65;;;0.70;;
25341;SDS011;13298;48.792;9.154;2023-03-31T16:24:42;2.15;;;0.70;;
25341;SDS011;13298;48.792;9.154;2023-03-31T16:27:07;3.35;;;0.88;;
25341;SDS011;13298;48.792;9.154;2023-03-31T16:29:34;3.80;;;0.77;;
25341;SDS011;13298;48.792;9.154;2023-03-31T16:32:19;3.80;;;0.68;;
25341;SDS011;13298;48.792;9.154;2023-03-31T16:34:55;5.15;;;0.80;;
25341;SDS011;13298;48.792;9.154;2023-03-31T16:37:24;1.55;;;0.45;;
25341;SDS011;13298;48.792;9.154;2023-03-31T16:39:49;1.67;;;0.57;;
25341;SDS011;13298;48.792;9.154;2023-03-31T16:42:15;3.63;;;0.68;;
25341;SDS011;13298;48.792;9.154;2023-03-31T16:44:42;2.67;;;0.80;;
25341;SDS011;13298;48.792;9.154;2023-03-31T16:47:09;1.52;;;0.50;;
25341;SDS011;13298;48.792;9.154;2023-03-31T16:49:35;2.35;;;0.63;;
25341;SDS011;13298;48.792;9.154;2023-03-31T16:52:01;2.83;;;0.75;;
25341;SDS011;13298;48.792;9.154;2023-03-31T16:54:28;1.33;;;0.57;;
25341;SDS011;13298;48.792;9.154;2023-03-31T16:56:55;1.50;;;0.60;;
25341;SDS011;13298;48.792;9.154;2023-03-31T16:59:21;2.80;;;0.47;;
25341;SDS011;13298;48.792;9.154;2023-03-31T17:01:48;1.77;;;0.35;;
25341;SDS011;13298;48.792;9.154;2023-03-31T17:04:15;0.60;;;0.38;;
25341;SDS011;13298;48.792;9.154;2023-03-31T17:06:41;1.48;;;0.55;;
25341;SDS011;13298;48.792;9.154;2023-03-31T17:09:08;1.17;;;0.60;;
25341;SDS011;13298;48.792;9.154;2023-03-31T17:11:34;1.52;;;0.60;;
25341;SDS011;13298;48.792;9.154;2023-03-31T17:14:00;1.83;;;0.47;;
25341;SDS011;13298;48.792;9.154;2023-03-31T17:16:27;1.55;;;0.40;;
25341;SDS011;13298;48.792;9.154;2023-03-31T17:18:53;2.35;;;0.40;;
25341;SDS011;13298;48.792;9.154;2023-03-31T17:21:19;1.65;;;0.50;;
25341;SDS011;13298;48.792;9.154;2023-03-31T17:23:45;1.70;;;0.50;;
25341;SDS011;13298;48.792;9.154;2023-03-31T17:26:12;0.43;;;0.35;;
25341;SDS011;13298;48.792;9.154;2023-03-31T17:28:38;1.85;;;0.82;;
25341;SDS011;13298;48.792;9.154;2023-03-31T17:31:11;1.25;;;0.47;;
25341;SDS011;13298;48.792;9.154;2023-03-31T17:33:46;3.17;;;0.57;;
25341;SDS011;13298;48.792;9.154;2023-03-31T17:36:12;2.70;;;0.50;;
25341;SDS011;13298;48.792;9.154;2023-03-31T17:38:39;2.85;;;0.50;;
25341;SDS011;13298;48.792;9.154;2023-03-31T17:41:06;3.03;;;0.60;;
25341;SDS011;13298;48.792;9.154;2023-03-31T17:43:34;1.38;;;0.50;;
25341;SDS011;13298;48.792;9.154;2023-03-31T17:46:02;1.52;;;0.32;;
25341;SDS011;13298;48.792;9.154;2023-03-31T17:48:36;1.08;;;0.40;;
25341;SDS011;13298;48.792;9.154;2023-03-31T17:51:13;2.83;;;0.60;;
25341;SDS011;13298;48.792;9.154;2023-03-31T17:53:42;2.33;;;0.50;;
25341;SDS011;13298;48.792;9.154;2023-03-31T17:56:10;2.03;;;0.50;;